Time;durP1;ratioP1;P1;durP2;ratioP2;P2;SDS_P1;SDS_P2;PMS_P1;PMS_P2;Temp;Humidity;BMP_temperature;BMP_pressure;BME280_temperature;BME280_humidity;BME280_pressure;Samples;Min_cycle;Max_cycle;Signal;HPM_P1;HPM_P2
2022/09/30 00:01:08;;;;;;;8.75;6.40;;;;;;;;;;5114313;28;20055;-84
2022/09/30 00:03:35;;;;;;;8.40;6.30;;;;;;;;;;5095107;28;20028;-83
2022/09/30 00:06:02;;;;;;;9.93;6.15;;;;;;;;;;5115811;28;20035;-83
2022/09/30 00:08:28;;;;;;;7.85;6.10;;;;;;;;;;5114966;28;20028;-83
2022/09/30 00:11:04;;;;;;;8.15;6.05;;;;;;;;;;5115679;28;20023;-83
2022/09/30 00:13:34;;;;;;;7.85;6.20;;;;;;;;;;5114424;28;20472;-83
2022/09/30 00:16:00;;;;;;;9.18;6.15;;;;;;;;;;5115980;28;20063;-83
2022/09/30 00:18:26;;;;;;;8.98;5.90;;;;;;;;;;5115863;28;20104;-83
2022/09/30 00:20:52;;;;;;;7.88;5.90;;;;;;;;;;5114102;28;20055;-83
2022/09/30 00:23:19;;;;;;;6.78;5.57;;;;;;;;;;5076838;28;20132;-83
2022/09/30 00:25:44;;;;;;;8.00;5.28;;;;;;;;;;5111725;28;20114;-83
2022/09/30 00:28:09;;;;;;;7.20;5.53;;;;;;;;;;5097097;28;20066;-83
2022/09/30 00:30:35;;;;;;;5.95;4.97;;;;;;;;;;5115388;28;20028;-83
2022/09/30 00:33:00;;;;;;;6.55;5.13;;;;;;;;;;5096910;28;20052;-83
2022/09/30 00:35:25;;;;;;;6.13;5.18;;;;;;;;;;5114426;28;20523;-84
2022/09/30 00:37:51;;;;;;;7.07;5.40;;;;;;;;;;5096844;28;20096;-84
2022/09/30 00:40:18;;;;;;;8.90;5.47;;;;;;;;;;5115367;28;20034;-84
2022/09/30 00:42:45;;;;;;;7.78;4.88;;;;;;;;;;5096922;28;20135;-84
2022/09/30 00:45:12;;;;;;;8.68;4.97;;;;;;;;;;5115277;28;20035;-84
2022/09/30 00:47:43;;;;;;;12.90;5.18;;;;;;;;;;5114859;28;20052;-84
2022/09/30 00:50:16;;;;;;;8.27;4.95;;;;;;;;;;5115210;28;20034;-84
2022/09/30 00:52:44;;;;;;;9.50;4.95;;;;;;;;;;5115141;28;20019;-84
2022/09/30 00:55:26;;;;;;;10.35;4.90;;;;;;;;;;5115134;28;20027;-84
2022/09/30 00:57:52;;;;;;;9.45;4.72;;;;;;;;;;5096306;28;20019;-84
2022/09/30 01:00:17;;;;;;;7.00;4.45;;;;;;;;;;5113634;28;20050;-84
2022/09/30 01:02:45;;;;;;;6.72;4.70;;;;;;;;;;5096416;28;20118;-84
2022/09/30 01:05:12;;;;;;;5.75;4.32;;;;;;;;;;5096387;28;20539;-84
2022/09/30 01:07:37;;;;;;;6.25;4.80;;;;;;;;;;5114245;28;20032;-84
2022/09/30 01:10:03;;;;;;;6.18;4.18;;;;;;;;;;5113545;28;20024;-84
2022/09/30 01:12:29;;;;;;;5.43;4.20;;;;;;;;;;5092213;28;20040;-84
2022/09/30 01:14:55;;;;;;;7.57;4.40;;;;;;;;;;5114414;28;20114;-84
2022/09/30 01:17:48;;;;;;;6.68;4.53;;;;;;;;;;5092816;28;20059;-84
2022/09/30 01:20:29;;;;;;;9.02;4.20;;;;;;;;;;5108986;28;20034;-83
2022/09/30 01:23:24;;;;;;;5.43;4.03;;;;;;;;;;5113074;28;20059;-83
2022/09/30 01:25:49;;;;;;;5.57;4.25;;;;;;;;;;5113064;28;20498;-83
2022/09/30 01:29:06;;;;;;;8.00;4.50;;;;;;;;;;5114290;28;20023;-83
2022/09/30 01:31:46;;;;;;;6.45;4.28;;;;;;;;;;5079497;28;20489;-83
2022/09/30 01:34:16;;;;;;;7.00;4.32;;;;;;;;;;5114188;28;20459;-83
2022/09/30 01:36:53;;;;;;;7.72;4.57;;;;;;;;;;5095760;28;20027;-83
2022/09/30 01:39:40;;;;;;;6.65;4.95;;;;;;;;;;5114264;28;20024;-83
2022/09/30 01:42:11;;;;;;;9.70;4.43;;;;;;;;;;5114004;28;20057;-83
2022/09/30 01:44:45;;;;;;;6.30;4.57;;;;;;;;;;5113734;28;20111;-83
2022/09/30 01:47:24;;;;;;;5.25;4.15;;;;;;;;;;5113826;28;20051;-83
2022/09/30 01:49:51;;;;;;;6.38;4.47;;;;;;;;;;5095351;28;20023;-83
2022/09/30 01:52:28;;;;;;;6.55;4.60;;;;;;;;;;5113794;28;20027;-83
2022/09/30 01:55:05;;;;;;;5.65;4.50;;;;;;;;;;5095873;28;20080;-84
2022/09/30 01:57:53;;;;;;;5.47;4.22;;;;;;;;;;5113667;28;20482;-83
2022/09/30 02:00:19;;;;;;;6.50;4.38;;;;;;;;;;5095490;28;20088;-83
2022/09/30 02:02:49;;;;;;;6.43;4.38;;;;;;;;;;5094312;28;20382;-83
2022/09/30 02:05:40;;;;;;;6.88;4.13;;;;;;;;;;5092283;28;20468;-83
2022/09/30 02:08:30;;;;;;;6.03;4.30;;;;;;;;;;5088600;28;20102;-83
2022/09/30 02:10:59;;;;;;;7.05;3.60;;;;;;;;;;5092065;28;20387;-82
2022/09/30 02:13:30;;;;;;;5.82;4.18;;;;;;;;;;5104772;28;20496;-84
2022/09/30 02:15:58;;;;;;;6.28;3.97;;;;;;;;;;5108977;28;20480;-83
2022/09/30 02:18:35;;;;;;;6.57;3.85;;;;;;;;;;5109078;28;20024;-83
2022/09/30 02:21:02;;;;;;;5.35;3.78;;;;;;;;;;5108851;28;20037;-83
2022/09/30 02:23:31;;;;;;;8.05;3.83;;;;;;;;;;5108631;28;20031;-82
2022/09/30 02:26:07;;;;;;;7.80;3.75;;;;;;;;;;5109047;28;20031;-83
2022/09/30 02:28:37;;;;;;;6.50;3.70;;;;;;;;;;5092328;28;20020;-83
2022/09/30 02:31:04;;;;;;;4.90;3.40;;;;;;;;;;5095326;28;20036;-83
2022/09/30 02:33:37;;;;;;;4.70;3.80;;;;;;;;;;5111981;28;20464;-83
2022/09/30 02:36:15;;;;;;;5.05;3.67;;;;;;;;;;5091945;28;20058;-83
2022/09/30 02:38:43;;;;;;;5.43;3.60;;;;;;;;;;5108558;28;20066;-83
2022/09/30 02:41:22;;;;;;;5.88;3.70;;;;;;;;;;5095108;28;20020;-83
2022/09/30 02:43:48;;;;;;;7.18;3.60;;;;;;;;;;5094855;28;20038;-83
2022/09/30 02:46:30;;;;;;;6.80;3.40;;;;;;;;;;5111697;28;20079;-82
2022/09/30 02:49:02;;;;;;;5.38;3.80;;;;;;;;;;5075441;28;20027;-83
2022/09/30 02:51:38;;;;;;;4.60;3.38;;;;;;;;;;5109460;28;20115;-82
2022/09/30 02:54:25;;;;;;;5.47;3.50;;;;;;;;;;5094815;28;20472;-84
2022/09/30 02:57:08;;;;;;;4.10;3.28;;;;;;;;;;5113260;28;20058;-82
2022/09/30 02:59:34;;;;;;;5.38;3.20;;;;;;;;;;5112934;28;20489;-83
2022/09/30 03:01:59;;;;;;;3.85;3.22;;;;;;;;;;5111790;28;20067;-83
2022/09/30 03:04:28;;;;;;;3.60;3.15;;;;;;;;;;5111731;28;20027;-83
2022/09/30 03:06:53;;;;;;;5.07;2.85;;;;;;;;;;5091664;28;20074;-84
2022/09/30 03:09:24;;;;;;;4.13;3.20;;;;;;;;;;5103739;28;20505;-83
2022/09/30 03:11:52;;;;;;;4.45;2.95;;;;;;;;;;5111518;28;20077;-83
2022/09/30 03:14:58;;;;;;;4.97;2.80;;;;;;;;;;5094625;28;20024;-83
2022/09/30 03:17:45;;;;;;;5.32;3.00;;;;;;;;;;5094734;28;20023;-84
2022/09/30 03:20:46;;;;;;;3.70;2.88;;;;;;;;;;5112743;28;20110;-84
2022/09/30 03:23:15;;;;;;;3.90;2.70;;;;;;;;;;5111812;28;20023;-83
2022/09/30 03:25:58;;;;;;;3.45;2.88;;;;;;;;;;5111566;28;20055;-83
2022/09/30 03:28:28;;;;;;;3.70;2.85;;;;;;;;;;5091252;28;20027;-82
2022/09/30 03:31:26;;;;;;;4.15;2.85;;;;;;;;;;5111830;28;20402;-83
2022/09/30 03:33:59;;;;;;;4.57;2.50;;;;;;;;;;5076025;28;20488;-83
2022/09/30 03:36:38;;;;;;;4.13;2.58;;;;;;;;;;5092596;28;20027;-83
2022/09/30 03:39:21;;;;;;;4.00;2.72;;;;;;;;;;5108194;28;20029;-83
2022/09/30 03:41:55;;;;;;;4.30;2.90;;;;;;;;;;5115129;28;20027;-83
2022/09/30 03:44:26;;;;;;;4.50;2.90;;;;;;;;;;5094854;28;20024;-82
2022/09/30 03:46:56;;;;;;;5.47;2.80;;;;;;;;;;5097367;28;20051;-82
2022/09/30 03:49:23;;;;;;;5.05;2.53;;;;;;;;;;5098466;28;20463;-82
2022/09/30 03:51:49;;;;;;;3.45;2.58;;;;;;;;;;5097944;28;20038;-83
2022/09/30 03:54:15;;;;;;;2.50;2.30;;;;;;;;;;5116269;28;20019;-83
2022/09/30 03:56:42;;;;;;;3.95;2.25;;;;;;;;;;5116325;28;20024;-83
2022/09/30 03:59:29;;;;;;;3.00;2.42;;;;;;;;;;5081256;28;20434;-83
2022/09/30 04:01:58;;;;;;;3.28;2.40;;;;;;;;;;5081074;28;20111;-83
2022/09/30 04:04:23;;;;;;;4.47;2.42;;;;;;;;;;5097910;28;20023;-84
2022/09/30 04:06:49;;;;;;;3.20;2.40;;;;;;;;;;5097869;28;20110;-83
2022/09/30 04:09:14;;;;;;;2.92;2.30;;;;;;;;;;5116020;28;20444;-83
2022/09/30 04:11:40;;;;;;;3.03;2.40;;;;;;;;;;5114853;28;20035;-82
2022/09/30 04:14:05;;;;;;;6.63;2.30;;;;;;;;;;5116039;28;20024;-82
2022/09/30 04:16:31;;;;;;;5.30;2.67;;;;;;;;;;5114808;28;20035;-81
2022/09/30 04:18:57;;;;;;;9.13;2.78;;;;;;;;;;5115548;28;20036;-80
2022/09/30 04:21:23;;;;;;;3.65;2.80;;;;;;;;;;5115619;28;20038;-82
2022/09/30 04:23:49;;;;;;;5.57;3.35;;;;;;;;;;5097858;28;20525;-82
2022/09/30 04:26:16;;;;;;;4.78;2.47;;;;;;;;;;5097544;28;20019;-82
2022/09/30 04:28:41;;;;;;;6.07;2.75;;;;;;;;;;5097162;28;20038;-81
2022/09/30 04:31:07;;;;;;;7.28;2.78;;;;;;;;;;5114094;28;20098;-82
2022/09/30 04:33:32;;;;;;;14.82;4.13;;;;;;;;;;5114768;28;20049;-82
2022/09/30 04:35:59;;;;;;;15.20;4.00;;;;;;;;;;5114397;28;20395;-82
2022/09/30 04:38:25;;;;;;;16.65;4.00;;;;;;;;;;5097409;28;20032;-82
2022/09/30 04:40:51;;;;;;;8.60;3.50;;;;;;;;;;5080389;28;20043;-82
2022/09/30 04:43:18;;;;;;;13.45;3.78;;;;;;;;;;5097445;28;20023;-82
2022/09/30 04:45:46;;;;;;;13.02;3.80;;;;;;;;;;5111797;28;20027;-82
2022/09/30 04:48:13;;;;;;;9.40;3.88;;;;;;;;;;5094143;28;20035;-81
2022/09/30 04:50:39;;;;;;;10.60;3.42;;;;;;;;;;5076903;28;20216;-83
2022/09/30 04:53:04;;;;;;;13.00;3.63;;;;;;;;;;5077154;28;20540;-84
2022/09/30 04:55:29;;;;;;;18.27;3.80;;;;;;;;;;5094840;28;20115;-84
2022/09/30 04:57:55;;;;;;;15.35;3.42;;;;;;;;;;5093648;28;20384;-81
2022/09/30 05:00:20;;;;;;;11.90;3.65;;;;;;;;;;5095042;28;20365;-83
2022/09/30 05:02:46;;;;;;;10.02;3.95;;;;;;;;;;5094746;28;20058;-83
2022/09/30 05:05:11;;;;;;;25.45;5.00;;;;;;;;;;5093578;28;20119;-81
2022/09/30 05:07:37;;;;;;;14.48;4.97;;;;;;;;;;5093766;28;20028;-81
2022/09/30 05:10:02;;;;;;;14.55;4.93;;;;;;;;;;5093527;28;20077;-82
2022/09/30 05:12:28;;;;;;;13.80;4.28;;;;;;;;;;5093363;28;20034;-82
2022/09/30 05:14:54;;;;;;;15.57;4.13;;;;;;;;;;5094586;28;20388;-81
2022/09/30 05:17:19;;;;;;;13.85;3.85;;;;;;;;;;5093697;28;20032;-83
2022/09/30 05:19:44;;;;;;;12.68;3.92;;;;;;;;;;5094818;28;20027;-83
2022/09/30 05:22:10;;;;;;;13.95;4.07;;;;;;;;;;5094399;28;20111;-85
2022/09/30 05:24:35;;;;;;;10.90;4.07;;;;;;;;;;5094527;28;20491;-85
2022/09/30 05:27:01;;;;;;;13.48;3.35;;;;;;;;;;5094497;28;20388;-85
2022/09/30 05:29:26;;;;;;;8.60;3.53;;;;;;;;;;5092920;28;20472;-83
2022/09/30 05:31:51;;;;;;;10.35;3.30;;;;;;;;;;5093166;28;20032;-83
2022/09/30 05:34:17;;;;;;;12.63;3.40;;;;;;;;;;5075830;28;20039;-82
2022/09/30 05:36:43;;;;;;;9.75;3.10;;;;;;;;;;5093994;28;20031;-84
2022/09/30 05:39:10;;;;;;;7.72;3.55;;;;;;;;;;5059191;28;20023;-82
2022/09/30 05:41:35;;;;;;;8.05;3.33;;;;;;;;;;5092663;28;20101;-85
2022/09/30 05:44:01;;;;;;;7.68;3.10;;;;;;;;;;5092968;28;20063;-84
2022/09/30 05:46:27;;;;;;;10.10;4.00;;;;;;;;;;5093910;28;20048;-83
2022/09/30 05:48:56;;;;;;;9.25;3.22;;;;;;;;;;5076421;28;20024;-82
2022/09/30 05:51:21;;;;;;;5.95;3.10;;;;;;;;;;5059690;28;20438;-85
2022/09/30 05:53:46;;;;;;;19.27;3.67;;;;;;;;;;5093843;28;20031;-82
2022/09/30 05:56:12;;;;;;;9.27;3.17;;;;;;;;;;5093048;28;20111;-82
2022/09/30 05:58:39;;;;;;;7.47;3.38;;;;;;;;;;5075219;28;20476;-80
2022/09/30 06:01:07;;;;;;;8.00;2.95;;;;;;;;;;5093832;28;20073;-84
2022/09/30 06:03:33;;;;;;;8.57;3.50;;;;;;;;;;5093019;28;20028;-83
2022/09/30 06:05:58;;;;;;;7.85;3.15;;;;;;;;;;5075784;28;20028;-83
2022/09/30 06:08:24;;;;;;;5.07;3.30;;;;;;;;;;5075564;28;20381;-83
2022/09/30 06:10:49;;;;;;;6.55;3.50;;;;;;;;;;5075453;28;20039;-83
2022/09/30 06:13:16;;;;;;;5.40;2.72;;;;;;;;;;5075540;28;20032;-83
2022/09/30 06:15:42;;;;;;;9.80;3.10;;;;;;;;;;5093740;28;20135;-82
2022/09/30 06:18:08;;;;;;;6.22;3.22;;;;;;;;;;5077253;28;20055;-83
2022/09/30 06:20:35;;;;;;;8.15;3.28;;;;;;;;;;5093078;28;20476;-83
2022/09/30 06:23:00;;;;;;;7.90;3.22;;;;;;;;;;5058569;28;20063;-83
2022/09/30 06:25:30;;;;;;;5.43;3.33;;;;;;;;;;5093738;28;20476;-82
2022/09/30 06:27:56;;;;;;;3.53;2.90;;;;;;;;;;5075955;28;20487;-82
2022/09/30 06:30:21;;;;;;;16.83;3.83;;;;;;;;;;5075528;28;20559;-82
2022/09/30 06:32:47;;;;;;;9.65;3.35;;;;;;;;;;5093608;28;20101;-82
2022/09/30 06:35:12;;;;;;;6.90;3.13;;;;;;;;;;5075871;28;20077;-82
2022/09/30 06:37:38;;;;;;;7.05;3.53;;;;;;;;;;5092382;28;20032;-81
2022/09/30 06:40:05;;;;;;;5.28;3.30;;;;;;;;;;5093489;28;20039;-81
2022/09/30 06:42:30;;;;;;;6.70;3.15;;;;;;;;;;5091830;28;20036;-81
2022/09/30 06:44:56;;;;;;;6.53;3.28;;;;;;;;;;5091896;28;20031;-81
2022/09/30 06:47:21;;;;;;;8.57;3.42;;;;;;;;;;5074932;28;20458;-82
2022/09/30 06:49:47;;;;;;;5.53;3.30;;;;;;;;;;5092292;28;20036;-82
2022/09/30 06:52:12;;;;;;;7.63;3.72;;;;;;;;;;5075007;28;20039;-81
2022/09/30 06:54:38;;;;;;;7.43;4.30;;;;;;;;;;5091892;28;20020;-82
2022/09/30 06:57:04;;;;;;;9.10;4.18;;;;;;;;;;5093523;28;20028;-82
2022/09/30 06:59:29;;;;;;;7.15;4.50;;;;;;;;;;5074985;28;20039;-81
2022/09/30 07:01:54;;;;;;;6.57;4.30;;;;;;;;;;5091730;28;20549;-81
2022/09/30 07:04:20;;;;;;;5.85;4.10;;;;;;;;;;5093180;28;20028;-81
2022/09/30 07:06:46;;;;;;;8.35;4.10;;;;;;;;;;5074864;28;20051;-81
2022/09/30 07:09:11;;;;;;;8.82;4.28;;;;;;;;;;5074905;28;20035;-81
2022/09/30 07:11:37;;;;;;;5.88;4.22;;;;;;;;;;5094328;28;20111;-81
2022/09/30 07:14:04;;;;;;;7.00;4.20;;;;;;;;;;5097340;28;20081;-82
2022/09/30 07:16:30;;;;;;;8.55;4.22;;;;;;;;;;5095913;28;20035;-82
2022/09/30 07:18:58;;;;;;;7.32;4.10;;;;;;;;;;5097242;28;20356;-82
2022/09/30 07:21:23;;;;;;;5.97;4.10;;;;;;;;;;5095487;28;20103;-83
2022/09/30 07:23:49;;;;;;;7.00;4.22;;;;;;;;;;5097129;28;20118;-82
2022/09/30 07:26:16;;;;;;;5.85;4.43;;;;;;;;;;5078457;28;20032;-82
2022/09/30 07:28:42;;;;;;;9.48;4.45;;;;;;;;;;5096620;28;20039;-82
2022/09/30 07:31:20;;;;;;;7.80;4.60;;;;;;;;;;5095208;28;20095;-81
2022/09/30 07:33:46;;;;;;;7.78;4.70;;;;;;;;;;5095440;28;20111;-81
2022/09/30 07:36:12;;;;;;;7.32;4.80;;;;;;;;;;5080222;28;20145;-81
2022/09/30 07:38:39;;;;;;;7.13;4.80;;;;;;;;;;5095114;28;20031;-81
2022/09/30 07:41:11;;;;;;;8.40;5.10;;;;;;;;;;5095492;28;20040;-82
2022/09/30 07:43:39;;;;;;;7.70;5.00;;;;;;;;;;5078125;28;20103;-82
2022/09/30 07:46:13;;;;;;;6.85;4.45;;;;;;;;;;5079980;28;20075;-82
2022/09/30 07:48:45;;;;;;;6.03;4.32;;;;;;;;;;5078171;28;20494;-81
2022/09/30 07:51:15;;;;;;;8.20;4.43;;;;;;;;;;5079108;28;20081;-80
2022/09/30 07:53:43;;;;;;;7.25;4.78;;;;;;;;;;5077939;28;20027;-81
2022/09/30 07:56:09;;;;;;;10.45;4.90;;;;;;;;;;5061360;28;20028;-82
2022/09/30 07:58:34;;;;;;;11.40;4.32;;;;;;;;;;5078497;28;20031;-82
2022/09/30 08:01:00;;;;;;;7.13;4.97;;;;;;;;;;5098881;28;20036;-82
2022/09/30 08:03:25;;;;;;;9.82;4.97;;;;;;;;;;5082039;28;20060;-82
2022/09/30 08:05:51;;;;;;;9.90;4.60;;;;;;;;;;5100184;28;20080;-81
2022/09/30 08:08:17;;;;;;;6.28;4.18;;;;;;;;;;5102224;28;20030;-80
2022/09/30 08:10:43;;;;;;;10.20;4.57;;;;;;;;;;5063795;28;20048;-80
2022/09/30 08:13:08;;;;;;;6.38;4.50;;;;;;;;;;5096842;28;20472;-81
2022/09/30 08:15:34;;;;;;;5.80;4.57;;;;;;;;;;5096767;28;20027;-83
2022/09/30 08:17:59;;;;;;;6.85;4.50;;;;;;;;;;5105268;28;20035;-83
2022/09/30 08:20:25;;;;;;;5.05;4.25;;;;;;;;;;5102959;28;20060;-82
2022/09/30 08:22:54;;;;;;;5.43;4.45;;;;;;;;;;5082680;28;20039;-82
2022/09/30 08:25:21;;;;;;;6.82;4.80;;;;;;;;;;5061815;28;20016;-82
2022/09/30 08:27:46;;;;;;;6.18;4.47;;;;;;;;;;5078069;28;20020;-82
2022/09/30 08:30:12;;;;;;;7.50;4.30;;;;;;;;;;5096085;28;20028;-80
2022/09/30 08:32:37;;;;;;;8.15;4.85;;;;;;;;;;5077397;28;20123;-80
2022/09/30 08:35:03;;;;;;;6.30;4.95;;;;;;;;;;5095427;28;20458;-80
2022/09/30 08:37:29;;;;;;;6.70;4.38;;;;;;;;;;5060867;28;20035;-80
2022/09/30 08:39:54;;;;;;;8.27;4.30;;;;;;;;;;5094699;28;20464;-80
2022/09/30 08:42:25;;;;;;;6.82;4.68;;;;;;;;;;5094284;28;20476;-82
2022/09/30 08:44:51;;;;;;;5.35;4.68;;;;;;;;;;5095504;28;20032;-82
2022/09/30 08:47:28;;;;;;;6.15;4.70;;;;;;;;;;5093861;28;20044;-82
2022/09/30 08:50:03;;;;;;;7.47;4.78;;;;;;;;;;5093896;28;20024;-82
2022/09/30 08:52:33;;;;;;;5.90;4.82;;;;;;;;;;5095537;28;20024;-80
2022/09/30 08:54:59;;;;;;;6.90;5.07;;;;;;;;;;5079318;28;20031;-82
2022/09/30 08:57:27;;;;;;;5.57;4.53;;;;;;;;;;5095047;28;20024;-82
2022/09/30 09:00:00;;;;;;;7.60;4.85;;;;;;;;;;5093922;28;20024;-82
2022/09/30 09:02:28;;;;;;;6.22;4.15;;;;;;;;;;5095201;28;20043;-81
2022/09/30 09:04:58;;;;;;;7.63;4.38;;;;;;;;;;5076648;28;20491;-81
2022/09/30 09:07:35;;;;;;;7.25;4.03;;;;;;;;;;5094102;28;20097;-82
2022/09/30 09:10:06;;;;;;;6.35;4.80;;;;;;;;;;5076973;28;20377;-81
2022/09/30 09:12:37;;;;;;;6.28;4.30;;;;;;;;;;5095055;28;20020;-82
2022/09/30 09:15:25;;;;;;;5.90;4.65;;;;;;;;;;5094582;28;20039;-81
2022/09/30 09:18:09;;;;;;;5.88;4.18;;;;;;;;;;5093931;28;20160;-81
2022/09/30 09:20:40;;;;;;;4.63;3.95;;;;;;;;;;5096689;28;20023;-81
2022/09/30 09:23:09;;;;;;;6.45;4.05;;;;;;;;;;5064594;28;20503;-82
2022/09/30 09:25:35;;;;;;;5.85;4.10;;;;;;;;;;5095282;28;20027;-81
2022/09/30 09:28:03;;;;;;;7.72;4.05;;;;;;;;;;5076871;28;20031;-82
2022/09/30 09:30:32;;;;;;;6.82;3.60;;;;;;;;;;5076564;28;20035;-81
2022/09/30 09:33:22;;;;;;;7.25;4.70;;;;;;;;;;5094541;28;20077;-81
2022/09/30 09:35:54;;;;;;;5.07;4.05;;;;;;;;;;5076398;28;20107;-81
2022/09/30 09:38:38;;;;;;;6.00;3.97;;;;;;;;;;5092998;28;20024;-81
2022/09/30 09:41:07;;;;;;;;;;;;;;;;;;5093322;28;20024;-81
2022/09/30 09:43:40;;;;;;;4.20;3.70;;;;;;;;;;5075838;28;19912;-81
2022/09/30 09:46:08;;;;;;;4.15;3.72;;;;;;;;;;5097324;28;20052;-81
2022/09/30 09:48:34;;;;;;;4.95;3.80;;;;;;;;;;5093387;28;20031;-81
2022/09/30 09:51:05;;;;;;;4.85;3.47;;;;;;;;;;5096001;28;20035;-80
2022/09/30 09:53:37;;;;;;;4.85;3.40;;;;;;;;;;5112988;28;20023;-82
2022/09/30 09:56:17;;;;;;;3.53;3.22;;;;;;;;;;5095866;28;20480;-81
2022/09/30 09:59:06;;;;;;;4.55;3.03;;;;;;;;;;5077573;28;20028;-81
2022/09/30 10:01:32;;;;;;;6.82;2.92;;;;;;;;;;5093228;28;20058;-81
2022/09/30 10:04:27;;;;;;;4.70;2.47;;;;;;;;;;5114530;28;20039;-81
2022/09/30 10:07:01;;;;;;;4.43;3.00;;;;;;;;;;5113157;28;20028;-81
2022/09/30 10:09:35;;;;;;;5.30;2.78;;;;;;;;;;5092723;28;20019;-82
2022/09/30 10:12:04;;;;;;;4.72;2.47;;;;;;;;;;5085468;28;20436;-82
2022/09/30 10:14:29;;;;;;;6.88;3.00;;;;;;;;;;5112800;28;20042;-82
2022/09/30 10:16:58;;;;;;;3.60;2.53;;;;;;;;;;5092297;28;20103;-80
2022/09/30 10:19:28;;;;;;;3.20;2.50;;;;;;;;;;5109806;28;20027;-79
2022/09/30 10:22:08;;;;;;;4.80;2.60;;;;;;;;;;5112441;28;20028;-80
2022/09/30 10:24:38;;;;;;;4.43;2.65;;;;;;;;;;5114005;28;20030;-80
2022/09/30 10:27:15;;;;;;;7.50;2.80;;;;;;;;;;5092195;28;20041;-80
2022/09/30 10:29:46;;;;;;;5.07;2.90;;;;;;;;;;5109414;28;20034;-80
2022/09/30 10:32:11;;;;;;;3.22;2.47;;;;;;;;;;5092032;28;20072;-80
2022/09/30 10:34:39;;;;;;;6.68;3.20;;;;;;;;;;5090844;28;20024;-80
2022/09/30 10:37:14;;;;;;;5.55;2.65;;;;;;;;;;5092326;28;20461;-80
2022/09/30 10:39:42;;;;;;;4.28;2.70;;;;;;;;;;5111946;28;20024;-81
2022/09/30 10:42:17;;;;;;;3.83;2.60;;;;;;;;;;5092155;28;20043;-80
2022/09/30 10:44:57;;;;;;;7.07;3.45;;;;;;;;;;5090718;28;20032;-80
2022/09/30 10:47:27;;;;;;;4.20;2.50;;;;;;;;;;5112253;28;20058;-80
2022/09/30 10:49:56;;;;;;;3.67;2.70;;;;;;;;;;5116890;28;20348;-80
2022/09/30 10:52:31;;;;;;;8.77;2.85;;;;;;;;;;5096354;28;20024;-82
2022/09/30 10:55:08;;;;;;;7.28;2.92;;;;;;;;;;5088038;28;20038;-81
2022/09/30 10:57:36;;;;;;;5.35;2.97;;;;;;;;;;5096711;28;20035;-82
2022/09/30 11:00:11;;;;;;;6.22;2.75;;;;;;;;;;5118008;28;20023;-78
2022/09/30 11:02:43;;;;;;;6.85;2.72;;;;;;;;;;5099447;28;20024;-81
2022/09/30 11:05:18;;;;;;;7.18;2.92;;;;;;;;;;5117609;28;20372;-81
2022/09/30 11:08:03;;;;;;;4.78;2.50;;;;;;;;;;5116380;28;20450;-80
2022/09/30 11:10:55;;;;;;;9.90;2.50;;;;;;;;;;5084022;28;20038;-81
2022/09/30 11:13:47;;;;;;;11.77;2.58;;;;;;;;;;5096072;28;20031;-80
2022/09/30 11:16:50;;;;;;;3.70;2.40;;;;;;;;;;5110426;28;20112;-82
2022/09/30 11:19:26;;;;;;;12.13;2.55;;;;;;;;;;5116083;28;20122;-82
2022/09/30 11:21:54;;;;;;;5.28;2.28;;;;;;;;;;5098780;28;20032;-81
2022/09/30 11:24:27;;;;;;;3.33;2.35;;;;;;;;;;5098988;28;20019;-81
2022/09/30 11:27:21;;;;;;;4.30;2.40;;;;;;;;;;5081940;28;20020;-81
2022/09/30 11:30:14;;;;;;;6.23;2.33;;;;;;;;;;5115917;28;20748;-81
2022/09/30 11:32:59;;;;;;;6.15;2.10;;;;;;;;;;5115853;28;20499;-81
2022/09/30 11:35:29;;;;;;;6.10;2.20;;;;;;;;;;5119393;28;20111;-81
2022/09/30 11:38:05;;;;;;;4.60;2.35;;;;;;;;;;5100934;28;20114;-82
2022/09/30 11:40:40;;;;;;;6.75;2.00;;;;;;;;;;5096674;28;20032;-82
2022/09/30 11:43:27;;;;;;;3.75;1.90;;;;;;;;;;5118047;28;20105;-82
2022/09/30 11:46:15;;;;;;;3.55;1.73;;;;;;;;;;5115615;28;20031;-82
2022/09/30 11:48:40;;;;;;;5.43;1.70;;;;;;;;;;5096263;28;20058;-83
2022/09/30 11:51:18;;;;;;;5.28;1.60;;;;;;;;;;5097249;28;20032;-81
2022/09/30 11:53:52;;;;;;;8.90;1.63;;;;;;;;;;5081828;28;20023;-81
2022/09/30 11:56:35;;;;;;;;;;;;;;;;;;5098173;28;20027;-81
2022/09/30 11:59:04;;;;;;;6.40;1.90;;;;;;;;;;5096970;28;19912;-82
2022/09/30 12:01:36;;;;;;;8.95;1.48;;;;;;;;;;5095481;28;20028;-80
2022/09/30 12:04:10;;;;;;;12.65;1.90;;;;;;;;;;5079677;28;20037;-80
2022/09/30 12:06:41;;;;;;;6.30;1.88;;;;;;;;;;5079534;28;20024;-81
2022/09/30 12:09:21;;;;;;;5.35;1.60;;;;;;;;;;5081567;28;20028;-84
2022/09/30 12:11:56;;;;;;;7.40;1.65;;;;;;;;;;5100147;28;20023;-82
2022/09/30 12:14:34;;;;;;;5.18;1.80;;;;;;;;;;5079059;28;20020;-80
2022/09/30 12:17:02;;;;;;;6.18;1.50;;;;;;;;;;5096063;28;20039;-79
2022/09/30 12:19:40;;;;;;;8.32;1.67;;;;;;;;;;5078046;28;20110;-80
2022/09/30 12:22:15;;;;;;;3.58;1.27;;;;;;;;;;5096205;28;20031;-78
2022/09/30 12:24:44;;;;;;;6.93;1.85;;;;;;;;;;5094602;28;20051;-78
2022/09/30 12:27:37;;;;;;;4.88;1.60;;;;;;;;;;5078368;28;20084;-80
2022/09/30 12:30:16;;;;;;;4.18;1.55;;;;;;;;;;5095280;28;20549;-79
2022/09/30 12:33:16;;;;;;;8.60;1.73;;;;;;;;;;5078428;28;20039;-78
2022/09/30 12:36:07;;;;;;;6.35;1.63;;;;;;;;;;5077766;28;20099;-79
2022/09/30 12:39:01;;;;;;;3.97;1.40;;;;;;;;;;5096076;28;20499;-80
2022/09/30 12:42:00;;;;;;;4.68;2.00;;;;;;;;;;5078790;28;20035;-79
2022/09/30 12:44:35;;;;;;;5.68;1.40;;;;;;;;;;5077475;28;20077;-79
2022/09/30 12:47:18;;;;;;;3.90;1.40;;;;;;;;;;5096654;28;20396;-79
2022/09/30 12:49:45;;;;;;;1.67;1.15;;;;;;;;;;5097290;28;20024;-79
2022/09/30 12:52:14;;;;;;;11.13;1.50;;;;;;;;;;5096750;28;20032;-79
2022/09/30 12:54:43;;;;;;;3.13;1.10;;;;;;;;;;5060606;28;20475;-80
2022/09/30 12:57:08;;;;;;;5.30;1.20;;;;;;;;;;5060277;28;20032;-80
2022/09/30 12:59:37;;;;;;;3.92;1.33;;;;;;;;;;5077854;28;20027;-78
2022/09/30 13:02:05;;;;;;;3.38;1.30;;;;;;;;;;5095041;28;20020;-80
2022/09/30 13:04:35;;;;;;;1.90;1.10;;;;;;;;;;5079063;28;20123;-79
2022/09/30 13:07:00;;;;;;;3.20;1.15;;;;;;;;;;5097899;28;20024;-80
2022/09/30 13:09:30;;;;;;;3.80;1.23;;;;;;;;;;5096447;28;20038;-81
2022/09/30 13:11:59;;;;;;;5.43;1.63;;;;;;;;;;5078870;28;20032;-79
2022/09/30 13:14:42;;;;;;;1.73;1.05;;;;;;;;;;5096721;28;20016;-81
2022/09/30 13:17:09;;;;;;;8.43;1.15;;;;;;;;;;5096462;28;20464;-81
2022/09/30 13:19:43;;;;;;;5.80;1.25;;;;;;;;;;5096342;28;20439;-80
2022/09/30 13:22:22;;;;;;;7.05;1.25;;;;;;;;;;5077947;28;20107;-80
2022/09/30 13:24:59;;;;;;;3.88;1.20;;;;;;;;;;5077941;28;20024;-81
2022/09/30 13:27:52;;;;;;;5.45;1.25;;;;;;;;;;5095461;28;20030;-78
2022/09/30 13:30:17;;;;;;;2.25;1.10;;;;;;;;;;5057543;28;20081;-78
2022/09/30 13:33:25;;;;;;;6.03;1.23;;;;;;;;;;5077444;28;20024;-78
2022/09/30 13:35:51;;;;;;;1.92;1.27;;;;;;;;;;5077464;28;20040;-80
2022/09/30 13:38:30;;;;;;;8.45;1.45;;;;;;;;;;5078098;28;20025;-79
2022/09/30 13:41:23;;;;;;;2.10;1.30;;;;;;;;;;5073437;28;20398;-80
2022/09/30 13:44:07;;;;;;;2.60;1.10;;;;;;;;;;5070749;28;20580;-80
2022/09/30 13:47:19;;;;;;;10.05;1.42;;;;;;;;;;5070430;28;20021;-82
2022/09/30 13:49:44;;;;;;;7.85;1.38;;;;;;;;;;5061293;28;20071;-80
2022/09/30 13:52:31;;;;;;;5.60;1.30;;;;;;;;;;5072033;28;20024;-81
2022/09/30 13:55:01;;;;;;;4.05;1.58;;;;;;;;;;5070689;28;20494;-80
2022/09/30 13:57:44;;;;;;;4.97;1.35;;;;;;;;;;5071793;28;20107;-80
2022/09/30 14:00:15;;;;;;;2.05;1.40;;;;;;;;;;5070491;28;20032;-80
2022/09/30 14:03:08;;;;;;;2.38;1.10;;;;;;;;;;5070958;28;20476;-80
2022/09/30 14:05:45;;;;;;;3.63;1.40;;;;;;;;;;5076720;28;20055;-80
2022/09/30 14:08:36;;;;;;;2.65;1.40;;;;;;;;;;5073654;28;20443;-79
2022/09/30 14:11:27;;;;;;;5.70;1.40;;;;;;;;;;5063471;28;20036;-79
2022/09/30 14:13:56;;;;;;;4.88;1.50;;;;;;;;;;5055927;28;20068;-79
2022/09/30 14:16:39;;;;;;;2.95;1.38;;;;;;;;;;5072792;28;20048;-80
2022/09/30 14:19:34;;;;;;;3.45;1.27;;;;;;;;;;5070509;28;20129;-80
2022/09/30 14:22:05;;;;;;;2.78;1.45;;;;;;;;;;5051969;28;20463;-80
2022/09/30 14:24:33;;;;;;;8.15;1.67;;;;;;;;;;5054802;28;20028;-80
2022/09/30 14:27:20;;;;;;;2.15;1.50;;;;;;;;;;5072989;28;20033;-80
2022/09/30 14:30:21;;;;;;;2.35;1.58;;;;;;;;;;5073632;28;20485;-80
2022/09/30 14:32:58;;;;;;;4.43;1.70;;;;;;;;;;5074255;28;20028;-79
2022/09/30 14:35:27;;;;;;;2.55;1.70;;;;;;;;;;5074293;28;20503;-79
2022/09/30 14:38:06;;;;;;;2.17;1.50;;;;;;;;;;5074767;28;20033;-80
2022/09/30 14:40:34;;;;;;;2.45;1.52;;;;;;;;;;5074931;28;20067;-79
2022/09/30 14:43:04;;;;;;;2.58;1.52;;;;;;;;;;5072512;28;20056;-79
2022/09/30 14:45:33;;;;;;;3.25;1.40;;;;;;;;;;5057119;28;20043;-80
2022/09/30 14:48:06;;;;;;;3.45;1.48;;;;;;;;;;5075325;28;20025;-79
2022/09/30 14:50:36;;;;;;;4.23;1.70;;;;;;;;;;5074674;28;20013;-79
2022/09/30 14:53:02;;;;;;;4.97;1.48;;;;;;;;;;5064152;28;20017;-79
2022/09/30 14:55:33;;;;;;;7.25;1.30;;;;;;;;;;5062107;28;20407;-79
2022/09/30 14:58:17;;;;;;;1.60;1.50;;;;;;;;;;5047302;28;20050;-79
2022/09/30 15:00:43;;;;;;;;;;;;;;;;;;5064158;28;20032;-79
2022/09/30 15:03:12;;;;;;;1.63;1.40;;;;;;;;;;5062716;28;19909;-79
2022/09/30 15:05:44;;;;;;;2.75;1.40;;;;;;;;;;5046528;28;20119;-79
2022/09/30 15:08:12;;;;;;;2.67;1.30;;;;;;;;;;5071852;28;20033;-79
2022/09/30 15:10:37;;;;;;;5.38;1.50;;;;;;;;;;5058836;28;20028;-79
2022/09/30 15:13:10;;;;;;;3.72;1.50;;;;;;;;;;5057111;28;20036;-79